This is the latest recevied weather packets stored in our database for station/object KD5FHA. If no packets are shown the sender has not sent any weather packets the latest 10 day(s).
| Time | Temp. | Humidity | Pressure | Rain* | Wind** | Luminosity | Snow |
|---|---|---|---|---|---|---|---|
| 1778258926 | 22.78° C | 65% | 1013.6 hPa | 0 mm | - | 608 W/m² | - |
| 1778258624 | 23.33° C | 63% | 1013.7 hPa | 0 mm | - | 604 W/m² | - |
| 1778258321 | 22.78° C | 65% | 1013.7 hPa | 0 mm | - | 630 W/m² | - |
| 1778258019 | 22.78° C | 64% | 1013.6 hPa | 0 mm | - | 548 W/m² | - |
| 1778257714 | 22.22° C | 67% | 1014 hPa | 0 mm | - | 501 W/m² | - |
| 1778257412 | 22.22° C | 64% | 1013.9 hPa | 0 mm | - | 523 W/m² | - |
| 1778257109 | 22.78° C | 65% | 1013.9 hPa | 0 mm | - | 513 W/m² | - |
| 1778256806 | 22.22° C | 66% | 1014.1 hPa | 0 mm | - | 636 W/m² | - |
| 1778256503 | 21.67° C | 68% | 1014.4 hPa | 0 mm | - | 619 W/m² | - |
| 1778256202 | 21.11° C | 70% | 1014.3 hPa | 0 mm | - | 504 W/m² | - |
| 1778255898 | 20.56° C | 71% | 1014.5 hPa | 0 mm | - | 373 W/m² | - |
| 1778255595 | 20° C | 72% | 1014.7 hPa | 0 mm | - | 312 W/m² | - |
| 1778255292 | 20° C | 72% | 1014.7 hPa | 0 mm | - | 275 W/m² | - |
| 1778254990 | 19.44° C | 73% | 1014.9 hPa | 0 mm | - | 249 W/m² | - |
| 1778254685 | 19.44° C | 74% | 1015.1 hPa | 0 mm | - | 230 W/m² | - |
| 1778254383 | 18.89° C | 74% | 1014.9 hPa | 0 mm | - | 162 W/m² | - |
| 1778254079 | 18.89° C | 73% | 1015 hPa | 0 mm | - | 136 W/m² | - |
| 1778253775 | 18.89° C | 73% | 1015.2 hPa | 0 mm | - | 154 W/m² | - |
| 1778253472 | 18.89° C | 73% | 1015.2 hPa | 0 mm | - | 132 W/m² | - |
| 1778253169 | 18.89° C | 73% | 1015.2 hPa | 0 mm | - | 145 W/m² | - |
| 1778252865 | 18.89° C | 73% | 1015 hPa | 0 mm | - | 106 W/m² | - |
| 1778252562 | 18.89° C | 73% | 1015 hPa | 0 mm | - | 109 W/m² | - |
| 1778252258 | 19.44° C | 72% | 1015.2 hPa | 0 mm | - | 111 W/m² | - |
| 1778251954 | 19.44° C | 72% | 1015 hPa | 0 mm | - | 144 W/m² | - |
| 1778251651 | 19.44° C | 72% | 1015 hPa | 0 mm | - | 165 W/m² | - |
* Rain latest hour (hover to see other rain measurements)
** Current wind speed in m/s (hover to see current wind gust speed)